Погода Шакпакна 2 недели

Южно-Казахстанская область, Казахстан

20 июля-02 августа
  • 20июля
    Сегодня
    +20°
    +34°
    Ясно и безоблачно
    ВремяПогодаТемператураВлажностьДавлениеВетер, м/сВероятность осадков
    02:00Практически безоблачно+23°C61 %720 мм3.0 м/с2 %
    05:00Практически безоблачно+21°C75 %721 мм3.9 м/с3 %
    08:00Практически безоблачно+24°C63 %723 мм2.7 м/с8 %
    11:00Ясно и безоблачно+30°C44 %723 мм1.8 м/с3 %
    14:00Ясно и безоблачно+34°C26 %722 мм3.9 м/с2 %
    17:00Ясно и безоблачно+33°C22 %722 мм4.0 м/с2 %
    20:00Ясно и безоблачно+28°C33 %722 мм1.6 м/с2 %
    23:00Ясно и безоблачно+24°C42 %722 мм2.0 м/с2 %
  • 21июля
    Воскресенье
    +23°
    +35°
    Ясно и безоблачно
    ВремяПогодаТемператураВлажностьДавлениеВетер, м/сВероятность осадков
    02:00Ясно и безоблачно+23°C42 %722 мм2.8 м/с2 %
    05:00Ясно и безоблачно+21°C50 %722 мм2.5 м/с2 %
    08:00Ясно и безоблачно+26°C47 %723 мм0.9 м/с2 %
    11:00Ясно и безоблачно+32°C25 %724 мм1.5 м/с2 %
    14:00Ясно и безоблачно+34°C19 %723 мм1.5 м/с2 %
    17:00Ясно и безоблачно+35°C20 %723 мм1.3 м/с2 %
    20:00Ясно и безоблачно+30°C27 %723 мм3.7 м/с2 %
    23:00Ясно и безоблачно+26°C37 %722 мм3.3 м/с2 %
  • 22июля
    Понедельник
    +23°
    +37°
    Небольшая облачность
    ВремяПогодаТемператураВлажностьДавлениеВетер, м/сВероятность осадков
    02:00Ясно и безоблачно+24°C41 %722 мм3.2 м/с2 %
    05:00Ясно и безоблачно+23°C44 %722 мм3.0 м/с2 %
    08:00Ясно и безоблачно+29°C36 %723 мм3.0 м/с2 %
    11:00Ясно и безоблачно+35°C24 %722 мм2.7 м/с2 %
    14:00Небольшая облачность+36°C21 %722 мм2.2 м/с2 %
    17:00Ясно и безоблачно+36°C21 %721 мм2.7 м/с2 %
    20:00Небольшая облачность+31°C28 %721 мм3.8 м/с2 %
    23:00Практически безоблачно+26°C37 %721 мм3.1 м/с2 %
  • 23июля
    Вторник
    +25°
    +38°
    Практически безоблачно
    ВремяПогодаТемператураВлажностьДавлениеВетер, м/сВероятность осадков
    02:00Облачно с прояснениями+26°C36 %720 мм3.0 м/с2 %
    05:00Небольшая облачность+24°C44 %720 мм2.5 м/с2 %
    08:00Практически безоблачно+28°C41 %721 мм1.0 м/с2 %
    11:00Практически безоблачно+34°C26 %721 мм1.0 м/с2 %
    14:00Практически безоблачно+37°C18 %721 мм1.2 м/с2 %
    17:00Небольшая облачность+36°C20 %720 мм0.4 м/с2 %
    20:00Небольшая облачность+32°C27 %720 мм3.6 м/с2 %
    23:00Практически безоблачно+29°C31 %720 мм3.8 м/с2 %
  • 24июля
    Среда
    +26°
    +38°
    Ясно и безоблачно
    ВремяПогодаТемператураВлажностьДавлениеВетер, м/сВероятность осадков
    02:00Ясно и безоблачно+26°C36 %720 мм3.0 м/с2 %
    05:00Ясно и безоблачно+26°C35 %720 мм3.8 м/с2 %
    08:00Ясно и безоблачно+30°C31 %720 мм2.4 м/с2 %
    11:00Ясно и безоблачно+36°C21 %720 мм0.5 м/с2 %
    14:00Ясно и безоблачно+37°C17 %719 мм0.5 м/с2 %
    17:00Ясно и безоблачно+38°C18 %718 мм1.1 м/с2 %
    20:00Ясно и безоблачно+33°C25 %718 мм2.2 м/с2 %
    23:00Ясно и безоблачно+29°C30 %718 мм3.5 м/с2 %
Мы используем cookies
Соглашаюсь